CheckWX is a tool to help pilots better visualize weather data.  It is not intended as a substitute for an official pre-flight weather briefing.

06:44:37 UTC

KRFI METAR
Rusk County Airport
Henderson, Texas, USA
Current

10 mins ago

KRFI 210635Z AUTO 16011G21KT 10SM BKN026 OVC034 25/21 A2969 RMK AO2 T02480206
Observed
May-21 @ 06:35 UTC
Wind
  • 160° at 11 KTS
  • Gusting to 21 KTS
Visibility
10 SM
Flight Rules
MVFR
Cloud Levels
  • Broken at 2,600' AGL
  • Overcast at 3,400' AGL
Temperature
25°C / 77°F
Dewpoint
21°C / 70°F
Humidity
79%
Altimeter
29.69" Hg
Pressure
1005.42 hPa
Previous

30 mins ago

KRFI 210615Z AUTO 16014G19KT 10SM BKN024 OVC032 25/21 A2970 RMK AO2 T02500207
Observed
May-21 @ 06:15 UTC
Wind
  • 160° at 14 KTS
  • Gusting to 19 KTS
Visibility
10 SM
Flight Rules
MVFR
Cloud Levels
  • Broken at 2,400' AGL
  • Overcast at 3,200' AGL
Temperature
25°C / 77°F
Dewpoint
21°C / 70°F
Humidity
79%
Altimeter
29.7" Hg
Pressure
1005.72 hPa
Previous

50 mins ago

KRFI 210555Z AUTO 16014G18KT 10SM BKN024 OVC034 25/21 A2970 RMK AO2 T02500210 10287 20250
Observed
May-21 @ 05:55 UTC
Wind
  • 160° at 14 KTS
  • Gusting to 18 KTS
Visibility
10 SM
Flight Rules
MVFR
Cloud Levels
  • Broken at 2,400' AGL
  • Overcast at 3,400' AGL
Temperature
25°C / 77°F
Dewpoint
21°C / 70°F
Humidity
79%
Altimeter
29.7" Hg
Pressure
1005.72 hPa